Aviation Digital Data Service (ADDS)

Output produced by METARs form (1739 UTC 27 May 2017)
found at http://www.aviationweather.gov/adds/metars/
 
FTTC 271500Z 00000KT CAVOK 42/15 Q1009
FTTD 271500Z 22006KT 9999 SCT040 34/22 Q1011
FTTJ 271700Z 31006KT 280V340 CAVOK 38/12 Q1008 NOSIG
TAF FTTJ 271700Z 2718/2824 VRB05KT 8000 NSC 
     BECMG 2806/2808 27010KT 
     PROB30 
     TEMPO 2812/2818 VRB15G30KT 4000 TSRA BLDU
       
FTTA 271700Z 22004KT 9999 FEW050CB 33/22 Q1012